createdAt,value
2019-05-10T00:00:20.081Z,100271.88
2019-05-10T00:03:05.426Z,100277.63
2019-05-10T00:05:50.895Z,100283.34
2019-05-10T00:08:36.193Z,100284.62
2019-05-10T00:11:33.306Z,100281.63
2019-05-10T00:14:25.322Z,100291.30
2019-05-10T00:16:54.708Z,100293.50
2019-05-10T00:19:21.729Z,100293.94
2019-05-10T00:21:48.846Z,100290.42
2019-05-10T00:24:15.843Z,100298.42
2019-05-10T00:26:43.001Z,100288.75
2019-05-10T00:29:10.011Z,100294.47
2019-05-10T00:31:37.040Z,100288.27
2019-05-10T00:34:04.087Z,100290.86
2019-05-10T00:36:31.155Z,100295.21
2019-05-10T00:38:58.198Z,100289.02
2019-05-10T00:41:25.206Z,100291.16
2019-05-10T00:43:52.306Z,100293.45
2019-05-10T00:46:19.350Z,100297.41
2019-05-10T00:48:46.371Z,100296.97
2019-05-10T00:51:13.391Z,100300.09
2019-05-10T00:53:40.406Z,100298.24
2019-05-10T00:56:07.429Z,100311.37
2019-05-10T00:58:34.426Z,100310.54
2019-05-10T01:01:01.470Z,100312.30
2019-05-10T01:03:28.494Z,100319.28
2019-05-10T01:05:55.517Z,100318.31
2019-05-10T01:08:22.571Z,100322.32
2019-05-10T01:10:49.633Z,100322.32
2019-05-10T01:13:16.633Z,100328.47
2019-05-10T01:15:46.798Z,100330.27
2019-05-10T01:18:12.810Z,100325.52
2019-05-10T01:20:39.848Z,100335.20
2019-05-10T01:23:06.888Z,100332.02
2019-05-10T01:25:35.794Z,100335.05
2019-05-10T01:28:03.005Z,100334.61
2019-05-10T01:30:30.010Z,100335.45
2019-05-10T01:32:57.245Z,100329.68
2019-05-10T01:35:24.291Z,100332.45
2019-05-10T01:37:51.335Z,100333.34
2019-05-10T01:40:18.357Z,100336.42
2019-05-10T01:42:45.428Z,100336.47
2019-05-10T01:45:12.814Z,100338.14
2019-05-10T01:47:39.839Z,100344.18
2019-05-10T01:50:06.982Z,100345.55
2019-05-10T01:52:34.022Z,100344.58
2019-05-10T01:55:01.056Z,100344.66
2019-05-10T01:57:28.073Z,100347.70
2019-05-10T01:59:55.075Z,100348.63
2019-05-10T02:02:22.120Z,100353.27
2019-05-10T02:04:49.150Z,100349.80
2019-05-10T02:07:16.156Z,100354.19
2019-05-10T02:09:43.193Z,100356.34
2019-05-10T02:12:10.191Z,100356.30
2019-05-10T02:14:37.240Z,100359.75
2019-05-10T02:17:04.266Z,100359.27
2019-05-10T02:19:31.307Z,100360.64
2019-05-10T02:21:58.338Z,100362.44
2019-05-10T02:24:25.397Z,100365.52
2019-05-10T02:26:52.411Z,100360.97
2019-05-10T02:29:19.504Z,100363.22
2019-05-10T02:31:46.520Z,100364.59
2019-05-10T02:34:13.552Z,100370.34
2019-05-10T02:36:40.583Z,100372.98
2019-05-10T02:39:07.966Z,100375.61
2019-05-10T02:41:34.977Z,100385.28
2019-05-10T02:44:02.135Z,100381.81
2019-05-10T02:46:29.217Z,100388.84
2019-05-10T02:48:56.298Z,100386.49
2019-05-10T02:51:23.342Z,100393.53
2019-05-10T02:53:50.590Z,100397.52
2019-05-10T02:56:30.661Z,100390.45
2019-05-10T02:58:48.753Z,100399.19
2019-05-10T03:01:19.518Z,100400.06
2019-05-10T03:03:49.036Z,100405.55
2019-05-10T03:06:18.355Z,100411.02
2019-05-10T03:08:50.987Z,100405.20
2019-05-10T03:11:18.734Z,100408.60
2019-05-10T03:13:49.130Z,100414.37
2019-05-10T03:16:19.788Z,100410.17
2019-05-10T03:18:48.961Z,100416.81
2019-05-10T03:21:16.876Z,100417.20
2019-05-10T03:23:44.042Z,100426.42
2019-05-10T03:26:11.191Z,100428.17
2019-05-10T03:28:38.213Z,100427.19
2019-05-10T03:31:05.582Z,100432.07
2019-05-10T03:33:32.617Z,100432.94
2019-05-10T03:36:02.563Z,100431.22
2019-05-10T03:38:29.995Z,100443.56
2019-05-10T03:40:57.149Z,100441.81
2019-05-10T03:43:24.173Z,100444.65
2019-05-10T03:45:51.205Z,100445.70
2019-05-10T03:48:18.309Z,100446.65
2019-05-10T03:50:45.370Z,100450.96
2019-05-10T03:53:12.420Z,100456.91
2019-05-10T03:55:39.452Z,100458.56
2019-05-10T03:58:06.509Z,100460.00
2019-05-10T04:00:33.528Z,100466.94
2019-05-10T04:03:03.443Z,100469.75
2019-05-10T04:05:30.453Z,100470.69
2019-05-10T04:07:57.471Z,100472.77
2019-05-10T04:10:24.530Z,100483.90
2019-05-10T04:12:51.600Z,100483.52
2019-05-10T04:15:22.899Z,100489.46
2019-05-10T04:17:50.681Z,100490.02
2019-05-10T04:20:17.855Z,100499.83
2019-05-10T04:22:44.866Z,100491.69
2019-05-10T04:25:12.424Z,100495.48
2019-05-10T04:27:39.434Z,100495.84
2019-05-10T04:30:06.877Z,100502.47
2019-05-10T04:32:33.919Z,100505.35
2019-05-10T04:35:01.194Z,100507.05
2019-05-10T04:37:28.216Z,100511.09
2019-05-10T04:39:55.263Z,100506.62
2019-05-10T04:42:22.281Z,100528.58
2019-05-10T04:44:53.127Z,100528.58
2019-05-10T04:47:18.372Z,100526.02
2019-05-10T04:49:45.401Z,100525.23
2019-05-10T04:52:12.446Z,100529.47
2019-05-10T04:54:39.461Z,100537.81
2019-05-10T04:57:06.471Z,100531.66
2019-05-10T04:59:33.534Z,100529.08
2019-05-10T05:02:00.621Z,100546.08
2019-05-10T05:04:27.633Z,100545.87
2019-05-10T05:06:54.646Z,100546.44
2019-05-10T05:09:21.885Z,100555.52
2019-05-10T05:11:48.919Z,100553.97
2019-05-10T05:14:15.949Z,100554.55
2019-05-10T05:16:42.988Z,100560.86
2019-05-10T05:19:10.034Z,100568.97
2019-05-10T05:21:37.071Z,100571.02
2019-05-10T05:24:04.083Z,100572.70
2019-05-10T05:26:31.099Z,100572.78
2019-05-10T05:28:58.139Z,100578.98
2019-05-10T05:31:25.157Z,100582.80
2019-05-10T05:33:52.181Z,100582.93
2019-05-10T05:36:19.255Z,100581.61
2019-05-10T05:38:47.479Z,100584.52
2019-05-10T05:41:15.231Z,100585.61
2019-05-10T05:43:46.338Z,100594.83
2019-05-10T05:46:14.310Z,100594.83
2019-05-10T05:48:40.826Z,100599.73
2019-05-10T05:51:08.213Z,100610.23
2019-05-10T05:53:41.545Z,100610.23
2019-05-10T05:56:12.860Z,100607.31
2019-05-10T05:58:38.127Z,100613.31
2019-05-10T06:01:02.222Z,100615.20
2019-05-10T06:03:29.900Z,100625.23
2019-05-10T06:05:57.087Z,100614.62
2019-05-10T06:08:25.120Z,100628.55
2019-05-10T06:10:58.190Z,100626.06
2019-05-10T06:13:29.659Z,100625.00
2019-05-10T06:15:52.090Z,100627.69
2019-05-10T06:18:19.130Z,100636.28
2019-05-10T06:20:46.944Z,100641.30
2019-05-10T06:23:17.245Z,100655.56
2019-05-10T06:25:44.283Z,100649.84
2019-05-10T06:28:25.644Z,100660.33
2019-05-10T06:30:40.302Z,100651.84
2019-05-10T06:33:12.587Z,100670.79
2019-05-10T06:35:36.295Z,100665.75
2019-05-10T06:38:03.343Z,100673.42
2019-05-10T06:40:35.650Z,100669.53
2019-05-10T06:42:59.331Z,100680.66
2019-05-10T06:45:26.486Z,100687.90
2019-05-10T06:47:53.648Z,100695.73
2019-05-10T06:50:29.076Z,100706.35
2019-05-10T06:52:51.930Z,100701.89
2019-05-10T06:55:18.633Z,100703.78
2019-05-10T06:57:49.882Z,100711.81
2019-05-10T07:00:14.883Z,100718.20
2019-05-10T07:02:41.951Z,100726.12
2019-05-10T07:05:08.975Z,100723.31
2019-05-10T07:07:43.703Z,100731.35
2019-05-10T07:10:13.188Z,100738.96
2019-05-10T07:12:34.480Z,100736.09
2019-05-10T07:15:03.525Z,100740.47
2019-05-10T07:17:30.485Z,100743.99
2019-05-10T07:19:57.519Z,100759.95
2019-05-10T07:22:26.815Z,100752.12
2019-05-10T07:24:57.159Z,100758.46
2019-05-10T07:27:22.471Z,100763.98
2019-05-10T07:29:49.509Z,100773.03
2019-05-10T07:32:21.776Z,100773.03
2019-05-10T07:34:48.787Z,100771.30
2019-05-10T07:37:14.639Z,100776.44
2019-05-10T07:39:41.672Z,100783.59
2019-05-10T07:42:09.092Z,100784.91
2019-05-10T07:44:36.324Z,100779.87
2019-05-10T07:47:03.344Z,100794.17
2019-05-10T07:49:32.469Z,100797.12
2019-05-10T07:52:02.066Z,100799.37
2019-05-10T07:54:28.384Z,100800.61
2019-05-10T07:56:55.434Z,100803.33
2019-05-10T07:59:28.000Z,100815.17
2019-05-10T08:01:51.416Z,100817.95
2019-05-10T08:04:19.750Z,100822.28
2019-05-10T08:06:51.326Z,100824.40
2019-05-10T08:09:16.346Z,100819.59
2019-05-10T08:11:43.383Z,100821.66
2019-05-10T08:14:11.382Z,100827.86
2019-05-10T08:16:38.808Z,100829.23
2019-05-10T08:19:05.994Z,100835.86
2019-05-10T08:21:33.057Z,100842.88
2019-05-10T08:24:05.153Z,100843.24
2019-05-10T08:26:28.990Z,100843.68
2019-05-10T08:28:56.037Z,100844.56
2019-05-10T08:31:25.899Z,100847.70
2019-05-10T08:33:56.402Z,100853.86
2019-05-10T08:36:21.914Z,100858.68
2019-05-10T08:39:03.107Z,100864.54
2019-05-10T08:41:18.501Z,100860.45
2019-05-10T08:43:45.615Z,100871.32
2019-05-10T08:46:13.001Z,100870.77
2019-05-10T08:48:46.720Z,100876.87
2019-05-10T08:51:09.087Z,100881.20
2019-05-10T08:53:36.105Z,100877.73
2019-05-10T08:56:07.679Z,100880.99
2019-05-10T08:58:36.983Z,100887.09
2019-05-10T09:01:16.238Z,100892.34
2019-05-10T09:03:32.080Z,100903.01
2019-05-10T09:06:05.388Z,100890.91
2019-05-10T09:08:31.546Z,100894.59
2019-05-10T09:10:56.905Z,100899.94
2019-05-10T09:13:28.867Z,100893.64
2019-05-10T09:15:56.777Z,100896.99
2019-05-10T09:18:23.033Z,100905.13
2019-05-10T09:20:51.850Z,100900.50
2019-05-10T09:23:22.230Z,100900.12
2019-05-10T09:25:47.997Z,100899.03
2019-05-10T09:28:16.989Z,100901.65
2019-05-10T09:30:56.541Z,100904.56
2019-05-10T09:33:14.339Z,100906.06
2019-05-10T09:35:47.090Z,100909.59
2019-05-10T09:38:12.546Z,100918.45
2019-05-10T09:40:50.173Z,100920.09
2019-05-10T09:43:09.736Z,100915.13
2019-05-10T09:45:37.555Z,100923.45
2019-05-10T09:48:04.567Z,100922.14
2019-05-10T09:50:41.045Z,100924.20
2019-05-10T09:53:00.593Z,100927.03
2019-05-10T09:55:28.071Z,100936.46
2019-05-10T09:57:55.258Z,100931.28
2019-05-10T10:00:31.283Z,100941.08
2019-05-10T10:03:01.629Z,100950.77
2019-05-10T10:05:27.352Z,100948.52
2019-05-10T10:07:54.425Z,100948.48
2019-05-10T10:10:29.351Z,100950.52
2019-05-10T10:12:50.389Z,100952.13
2019-05-10T10:15:28.346Z,100948.44
2019-05-10T10:17:47.749Z,100958.00
2019-05-10T10:20:14.875Z,100959.05
2019-05-10T10:22:43.407Z,100961.38
2019-05-10T10:25:11.059Z,100967.44
2019-05-10T10:27:39.532Z,100969.67
2019-05-10T10:30:12.699Z,100977.34
2019-05-10T10:32:37.593Z,100974.70
2019-05-10T10:35:07.642Z,100974.70
2019-05-10T10:37:34.216Z,100978.33
2019-05-10T10:40:05.433Z,100983.62
2019-05-10T10:42:30.184Z,100989.47
2019-05-10T10:44:57.220Z,100989.09
2019-05-10T10:47:28.341Z,100997.08
2019-05-10T10:49:53.202Z,100999.61
2019-05-10T10:52:20.331Z,101001.14
2019-05-10T10:54:48.013Z,101015.13
2019-05-10T10:57:15.124Z,101010.23
2019-05-10T10:59:42.159Z,101010.67
2019-05-10T11:02:32.043Z,101012.88
2019-05-10T11:04:40.620Z,101017.98
2019-05-10T11:07:10.278Z,101018.45
2019-05-10T11:09:35.948Z,101020.16
2019-05-10T11:12:02.963Z,101018.51
2019-05-10T11:14:31.971Z,101022.39
2019-05-10T11:17:01.074Z,101028.86
2019-05-10T11:19:27.860Z,101026.00
2019-05-10T11:21:54.871Z,101031.10
2019-05-10T11:24:22.883Z,101030.78
2019-05-10T11:26:51.672Z,101026.59
2019-05-10T11:29:22.972Z,101029.09
2019-05-10T11:31:53.671Z,101036.12
2019-05-10T11:34:16.814Z,101031.05
2019-05-10T11:36:45.940Z,101034.42
2019-05-10T11:39:25.613Z,101041.09
2019-05-10T11:41:41.736Z,101042.39
2019-05-10T11:44:11.726Z,101053.27
2019-05-10T11:46:37.678Z,101051.85
2019-05-10T11:49:04.766Z,101054.00
2019-05-10T11:51:31.829Z,101046.81
2019-05-10T11:53:59.795Z,101058.51
2019-05-10T11:56:27.924Z,101058.67
2019-05-10T11:58:55.698Z,101062.20
2019-05-10T12:01:22.781Z,101060.09
2019-05-10T12:03:49.798Z,101050.25
2019-05-10T12:06:16.820Z,101059.33
2019-05-10T12:08:43.854Z,101053.85
2019-05-10T12:11:25.473Z,101059.94
2019-05-10T12:13:39.806Z,101058.55
2019-05-10T12:16:06.837Z,101065.07
2019-05-10T12:18:36.267Z,101072.20
2019-05-10T12:21:09.410Z,101070.42
2019-05-10T12:23:31.862Z,101068.89
2019-05-10T12:27:12.988Z,101075.20
2019-05-10T12:28:29.992Z,101082.11
2019-05-10T12:30:56.703Z,101078.39
2019-05-10T12:33:25.779Z,101086.62
2019-05-10T12:35:52.695Z,101089.78
2019-05-10T12:38:23.659Z,101088.19
2019-05-10T12:40:51.194Z,101090.28
2019-05-10T12:43:17.560Z,101099.06
2019-05-10T12:45:44.630Z,101098.44
2019-05-10T12:48:11.638Z,101110.02
2019-05-10T12:50:38.670Z,101103.04
2019-05-10T12:53:14.364Z,101101.59
2019-05-10T12:55:34.649Z,101104.81
2019-05-10T12:58:01.664Z,101103.45
2019-05-10T13:00:28.800Z,101097.47
2019-05-10T13:03:10.299Z,101108.30
2019-05-10T13:05:31.234Z,101103.22
2019-05-10T13:07:53.658Z,101116.81
2019-05-10T13:10:20.718Z,101120.59
2019-05-10T13:12:47.782Z,101118.78
2019-05-10T13:15:15.020Z,101116.83
2019-05-10T13:17:50.609Z,101126.05
2019-05-10T13:20:11.548Z,101134.70
2019-05-10T13:22:39.501Z,101130.40
2019-05-10T13:25:07.017Z,101140.59
2019-05-10T13:27:34.037Z,101148.24
2019-05-10T13:30:01.073Z,101148.05
2019-05-10T13:32:28.104Z,101153.44
2019-05-10T13:34:55.120Z,101153.97
2019-05-10T13:37:24.738Z,101159.37
2019-05-10T13:39:51.080Z,101162.84
2019-05-10T13:42:18.063Z,101164.48
2019-05-10T13:44:45.155Z,101166.63
2019-05-10T13:47:12.262Z,101168.51
2019-05-10T13:49:39.375Z,101170.84
2019-05-10T13:52:06.498Z,101166.63
2019-05-10T13:54:36.158Z,101176.95
2019-05-10T13:57:03.740Z,101184.52
2019-05-10T13:59:30.802Z,101186.23
2019-05-10T14:01:57.827Z,101190.45
2019-05-10T14:04:24.872Z,101188.64
2019-05-10T14:06:51.989Z,101192.93
2019-05-10T14:09:21.082Z,101195.72
2019-05-10T14:11:47.927Z,101204.88
2019-05-10T14:14:20.424Z,101192.42
2019-05-10T14:16:43.893Z,101193.62
2019-05-10T14:19:15.925Z,101190.91
2019-05-10T14:21:39.940Z,101199.99
2019-05-10T14:24:09.182Z,101202.02
2019-05-10T14:26:35.864Z,101205.41
2019-05-10T14:29:02.912Z,101203.53
2019-05-10T14:31:29.946Z,101199.80
2019-05-10T14:36:25.943Z,101202.77
2019-05-10T14:38:54.166Z,101211.19
2019-05-10T14:41:21.917Z,101205.27
2019-05-10T14:43:48.937Z,101216.45
2019-05-10T14:46:15.952Z,101209.98
2019-05-10T14:48:43.019Z,101209.30
2019-05-10T14:51:11.986Z,101208.34
2019-05-10T14:53:39.048Z,101212.43
2019-05-10T14:56:07.866Z,101216.74
2019-05-10T14:58:35.194Z,101214.17
2019-05-10T15:01:02.247Z,101220.33
2019-05-10T15:03:29.259Z,101214.41
2019-05-10T15:06:00.925Z,101216.81
2019-05-10T15:08:25.244Z,101215.72
2019-05-10T15:10:52.283Z,101220.41
2019-05-10T15:13:25.136Z,101219.31
2019-05-10T15:15:48.278Z,101224.88
2019-05-10T15:18:15.301Z,101225.62
2019-05-10T15:20:42.315Z,101228.12
2019-05-10T15:23:09.389Z,101231.63
2019-05-10T15:25:36.430Z,101237.67
2019-05-10T15:28:03.461Z,101231.80
2019-05-10T15:30:30.493Z,101236.53
2019-05-10T15:32:57.494Z,101235.59
2019-05-10T15:35:24.519Z,101230.09
2019-05-10T15:37:51.563Z,101243.02
2019-05-10T15:40:18.589Z,101244.41
2019-05-10T15:42:45.603Z,101237.16
2019-05-10T15:45:14.691Z,101238.77
2019-05-10T15:47:50.857Z,101237.43
2019-05-10T15:50:11.154Z,101242.12
2019-05-10T15:52:39.560Z,101240.59
2019-05-10T15:55:07.315Z,101242.55
2019-05-10T15:57:34.326Z,101237.08
2019-05-10T16:00:01.408Z,101239.37
2019-05-10T16:02:28.447Z,101243.98
2019-05-10T16:04:55.467Z,101246.75
2019-05-10T16:07:22.484Z,101243.45
2019-05-10T16:09:53.825Z,101245.57
2019-05-10T16:12:18.438Z,101239.55
2019-05-10T16:14:45.921Z,101246.95
2019-05-10T16:17:17.077Z,101241.88
2019-05-10T16:19:42.145Z,101240.76
2019-05-10T16:22:09.233Z,101240.84
2019-05-10T16:24:36.256Z,101237.17
2019-05-10T16:27:03.322Z,101245.59
2019-05-10T16:29:33.679Z,101245.98
2019-05-10T16:31:59.307Z,101244.13
2019-05-10T16:34:31.915Z,101250.45
2019-05-10T16:36:55.248Z,101240.33
2019-05-10T16:39:23.183Z,101252.33
2019-05-10T16:41:50.279Z,101251.73
2019-05-10T16:44:17.297Z,101251.19
2019-05-10T16:46:44.317Z,101250.33
2019-05-10T16:49:15.603Z,101253.92
2019-05-10T16:51:42.265Z,101255.33
2019-05-10T16:54:12.983Z,101259.23
2019-05-10T16:56:38.247Z,101260.48
2019-05-10T16:59:05.246Z,101257.84
2019-05-10T17:01:33.639Z,101261.44
2019-05-10T17:04:01.831Z,101263.70
2019-05-10T17:06:28.949Z,101262.36
2019-05-10T17:08:55.993Z,101265.27
2019-05-10T17:11:22.999Z,101265.57
2019-05-10T17:13:50.032Z,101261.13
2019-05-10T17:16:18.815Z,101260.27
2019-05-10T17:18:50.041Z,101253.31
2019-05-10T17:21:14.994Z,101250.94
2019-05-10T17:23:46.856Z,101252.91
2019-05-10T17:26:11.070Z,101261.97
2019-05-10T17:28:38.105Z,101253.72
2019-05-10T17:31:07.719Z,101255.43
2019-05-10T17:33:36.664Z,101260.44
2019-05-10T17:36:08.291Z,101264.33
2019-05-10T17:38:31.957Z,101260.37
2019-05-10T17:40:58.985Z,101257.89
2019-05-10T17:43:26.046Z,101259.11
2019-05-10T17:45:53.074Z,101264.55
2019-05-10T17:48:20.082Z,101256.05
2019-05-10T17:50:47.132Z,101262.25
2019-05-10T17:53:14.268Z,101266.91
2019-05-10T17:55:41.299Z,101258.23
2019-05-10T17:58:08.329Z,101259.30
2019-05-10T18:00:35.420Z,101261.11
2019-05-10T18:03:02.456Z,101261.53
2019-05-10T18:05:29.488Z,101261.75
2019-05-10T18:07:56.557Z,101265.06
2019-05-10T18:10:23.568Z,101259.42
2019-05-10T18:12:50.582Z,101265.58
2019-05-10T18:15:18.113Z,101267.49
2019-05-10T18:17:45.135Z,101272.38
2019-05-10T18:20:13.985Z,101266.60
2019-05-10T18:22:45.055Z,101271.92
2019-05-10T18:25:19.261Z,101274.92
2019-05-10T18:27:38.972Z,101267.92
2019-05-10T18:30:07.245Z,101275.25
2019-05-10T18:32:35.548Z,101275.98
2019-05-10T18:35:13.776Z,101272.33
2019-05-10T18:37:32.649Z,101284.95
2019-05-10T18:39:59.672Z,101284.66
2019-05-10T18:42:27.998Z,101287.05
2019-05-10T18:44:55.248Z,101299.78
2019-05-10T18:47:22.278Z,101303.89
2019-05-10T18:49:49.292Z,101303.89
2019-05-10T18:52:16.347Z,101314.22
2019-05-10T18:54:43.403Z,101304.31
2019-05-10T18:57:11.571Z,101315.08
2019-05-10T18:59:39.846Z,101319.60
2019-05-10T19:02:11.862Z,101316.47
2019-05-10T19:04:37.232Z,101319.36
2019-05-10T19:07:09.822Z,101316.22
2019-05-10T19:09:33.244Z,101319.71
2019-05-10T19:12:00.402Z,101323.08
2019-05-10T19:14:29.743Z,101325.13
2019-05-10T19:16:56.410Z,101328.58
2019-05-10T19:19:23.473Z,101328.58
2019-05-10T19:21:50.498Z,101328.34
2019-05-10T19:24:17.522Z,101330.34
2019-05-10T19:26:44.582Z,101330.34
2019-05-10T19:29:11.588Z,101332.63
2019-05-10T19:31:40.357Z,101330.42
2019-05-10T19:34:09.041Z,101335.94
2019-05-10T19:36:36.510Z,101335.94
2019-05-10T19:39:05.672Z,101341.13
2019-05-10T19:41:32.740Z,101353.48
2019-05-10T19:44:02.702Z,101339.12
2019-05-10T19:46:30.112Z,101347.38
2019-05-10T19:48:57.648Z,101352.85
2019-05-10T19:51:24.687Z,101352.16
2019-05-10T19:53:51.797Z,101366.19
2019-05-10T19:56:18.835Z,101366.19
2019-05-10T19:58:49.066Z,101364.67
2019-05-10T20:01:14.794Z,101364.67
2019-05-10T20:03:41.811Z,101365.31
2019-05-10T20:06:08.847Z,101375.33
2019-05-10T20:08:35.861Z,101375.33
2019-05-10T20:11:02.909Z,101383.00
2019-05-10T20:13:29.945Z,101381.41
2019-05-10T20:15:56.988Z,101386.37
2019-05-10T20:18:24.034Z,101386.37
2019-05-10T20:20:51.063Z,101389.50
2019-05-10T20:23:18.087Z,101393.92
2019-05-10T20:25:45.172Z,101386.72
2019-05-10T20:28:12.190Z,101386.72
2019-05-10T20:30:39.208Z,101404.44
2019-05-10T20:33:06.235Z,101412.83
2019-05-10T20:35:33.273Z,101406.72
2019-05-10T20:38:02.328Z,101409.77
2019-05-10T20:40:29.238Z,101409.23
2019-05-10T20:42:56.247Z,101410.00
2019-05-10T20:45:23.300Z,101408.60
2019-05-10T20:47:50.337Z,101404.19
2019-05-10T20:50:17.362Z,101407.59
2019-05-10T20:52:44.432Z,101398.17
2019-05-10T20:55:12.083Z,101402.77
2019-05-10T20:57:39.101Z,101386.54
2019-05-10T21:00:06.574Z,101394.89
2019-05-10T21:02:33.604Z,101389.09
2019-05-10T21:05:00.638Z,101377.13
2019-05-10T21:07:27.690Z,101372.43
2019-05-10T21:09:54.721Z,101377.69
2019-05-10T21:12:21.763Z,101377.69
2019-05-10T21:14:48.817Z,101371.67
2019-05-10T21:17:15.837Z,101369.67
2019-05-10T21:19:42.858Z,101371.28
2019-05-10T21:22:13.118Z,101361.41
2019-05-10T21:24:40.166Z,101361.41
2019-05-10T21:27:07.191Z,101363.74
2019-05-10T21:29:34.228Z,101368.66
2019-05-10T21:32:01.252Z,101368.16
2019-05-10T21:34:28.258Z,101367.59
2019-05-10T21:36:55.323Z,101367.59
2019-05-10T21:39:22.353Z,101359.45
2019-05-10T21:41:49.401Z,101362.71
2019-05-10T21:44:16.456Z,101363.39
2019-05-10T21:46:43.501Z,101355.92
2019-05-10T21:49:10.514Z,101362.41
2019-05-10T21:51:37.560Z,101359.23
2019-05-10T21:54:04.646Z,101356.80
2019-05-10T21:56:35.479Z,101356.80
2019-05-10T21:59:00.632Z,101365.19
2019-05-10T22:01:27.648Z,101366.97
2019-05-10T22:03:54.901Z,101367.68
2019-05-10T22:06:21.935Z,101367.68
2019-05-10T22:08:49.850Z,101374.38
2019-05-10T22:11:17.087Z,101366.75
2019-05-10T22:13:44.118Z,101376.87
2019-05-10T22:16:11.126Z,101375.80
2019-05-10T22:18:38.155Z,101375.67
2019-05-10T22:21:05.306Z,101372.83
2019-05-10T22:23:32.321Z,101371.84
2019-05-10T22:25:59.343Z,101372.47
2019-05-10T22:28:26.378Z,101365.45
2019-05-10T22:30:53.407Z,101374.09
2019-05-10T22:33:20.483Z,101374.09
2019-05-10T22:35:47.494Z,101373.95
2019-05-10T22:38:14.554Z,101378.77
2019-05-10T22:40:41.599Z,101379.28
2019-05-10T22:43:08.613Z,101378.39
2019-05-10T22:45:35.645Z,101378.39
2019-05-10T22:48:02.670Z,101375.20
2019-05-10T22:50:29.722Z,101377.74
2019-05-10T22:52:56.819Z,101378.97
2019-05-10T22:55:23.837Z,101378.97
2019-05-10T22:57:50.983Z,101379.72
2019-05-10T23:00:18.501Z,101378.74
2019-05-10T23:02:45.553Z,101384.83
2019-05-10T23:05:12.625Z,101383.23
2019-05-10T23:07:39.674Z,101384.93
2019-05-10T23:10:07.203Z,101387.41
2019-05-10T23:12:34.251Z,101384.64
2019-05-10T23:15:01.339Z,101394.72
2019-05-10T23:17:28.449Z,101390.64
2019-05-10T23:19:55.450Z,101387.93
2019-05-10T23:22:22.467Z,101385.58
2019-05-10T23:24:49.493Z,101386.24
2019-05-10T23:27:16.529Z,101390.50
2019-05-10T23:29:43.578Z,101392.66
2019-05-10T23:32:10.607Z,101389.95
2019-05-10T23:34:37.663Z,101383.33
2019-05-10T23:37:04.660Z,101383.33
2019-05-10T23:39:40.356Z,101385.72
2019-05-10T23:42:00.675Z,101385.63
2019-05-10T23:44:27.685Z,101383.70
2019-05-10T23:46:54.707Z,101386.65
2019-05-10T23:49:21.773Z,101380.04
2019-05-10T23:51:48.829Z,101380.04
2019-05-10T23:54:15.947Z,101379.14
2019-05-10T23:56:42.961Z,101380.96
2019-05-10T23:59:10.042Z,101378.10
